Time;durP1;ratioP1;P1;durP2;ratioP2;P2;SDS_P1;SDS_P2;PMS_P1;PMS_P2;Temp;Humidity;BMP_temperature;BMP_pressure;BME280_temperature;BME280_humidity;BME280_pressure;Samples;Min_cycle;Max_cycle;Signal;HPM_P1;HPM_P2
2022/11/24 00:02:16;;;;;;;0.60;0.60;;;5.80;99.90;;;;;;5036635;28;20224;-50
2022/11/24 00:04:43;;;;;;;0.60;0.60;;;5.90;99.90;;;;;;5050024;28;20219;-49
2022/11/24 00:07:11;;;;;;;2.13;0.50;;;5.80;99.90;;;;;;5048537;28;20208;-49
2022/11/24 00:09:38;;;;;;;0.60;0.60;;;5.80;99.90;;;;;;5050540;28;20674;-50
2022/11/24 00:12:05;;;;;;;0.83;0.53;;;5.90;99.90;;;;;;5052758;28;20231;-49
2022/11/24 00:14:35;;;;;;;1.40;0.80;;;5.80;99.90;;;;;;5043920;28;20199;-50
2022/11/24 00:17:02;;;;;;;1.30;0.90;;;5.80;99.90;;;;;;5051984;28;20199;-49
2022/11/24 00:19:29;;;;;;;0.73;0.73;;;5.80;99.90;;;;;;5038528;28;20215;-51
2022/11/24 00:21:56;;;;;;;1.50;1.10;;;5.80;99.90;;;;;;5033652;28;20758;-49
2022/11/24 00:24:24;;;;;;;0.97;0.97;;;5.80;99.90;;;;;;5050685;28;20220;-50
2022/11/24 00:26:51;;;;;;;0.80;0.80;;;5.80;99.90;;;;;;5052452;28;20207;-49
2022/11/24 00:29:18;;;;;;;0.67;0.67;;;5.70;99.90;;;;;;5039401;28;20198;-50
2022/11/24 00:31:45;;;;;;;0.67;0.67;;;5.70;99.90;;;;;;5032630;28;20208;-49
2022/11/24 00:34:14;;;;;;;1.67;0.57;;;5.70;99.90;;;;;;5045526;28;20208;-50
2022/11/24 00:36:42;;;;;;;1.10;1.00;;;5.70;99.90;;;;;;5044079;28;20204;-50
2022/11/24 00:39:12;;;;;;;0.70;0.67;;;5.70;99.90;;;;;;5051714;28;20204;-50
2022/11/24 00:41:41;;;;;;;1.83;0.90;;;5.70;99.90;;;;;;5050654;28;20196;-50
2022/11/24 00:44:08;;;;;;;1.10;0.93;;;5.70;99.90;;;;;;5039016;28;20219;-49
2022/11/24 00:46:35;;;;;;;2.57;0.87;;;5.70;99.90;;;;;;5048147;28;20210;-49
2022/11/24 00:49:02;;;;;;;1.27;0.80;;;5.80;99.90;;;;;;5043934;28;20258;-49
2022/11/24 00:51:30;;;;;;;1.53;0.70;;;5.80;99.90;;;;;;5042921;28;20237;-49
2022/11/24 00:53:58;;;;;;;0.70;0.70;;;5.80;99.90;;;;;;5045873;28;20544;-50
2022/11/24 00:56:25;;;;;;;1.50;1.00;;;5.80;99.90;;;;;;5046019;28;20215;-51
2022/11/24 00:58:54;;;;;;;2.10;0.63;;;5.80;99.90;;;;;;5050542;28;20209;-49
2022/11/24 01:01:23;;;;;;;1.67;0.77;;;5.80;99.90;;;;;;5045265;28;20201;-49
2022/11/24 01:03:50;;;;;;;0.67;0.67;;;5.80;99.90;;;;;;5048684;28;20558;-50
2022/11/24 01:06:19;;;;;;;2.83;0.50;;;5.80;99.90;;;;;;5051851;28;20570;-49
2022/11/24 01:08:47;;;;;;;0.77;0.50;;;5.80;99.90;;;;;;5052322;28;20206;-49
2022/11/24 01:11:15;;;;;;;2.73;0.60;;;5.90;99.90;;;;;;5046202;28;20215;-49
2022/11/24 01:13:44;;;;;;;4.00;1.00;;;5.80;99.90;;;;;;5042759;28;20682;-49
2022/11/24 01:16:19;;;;;;;1.07;0.97;;;5.80;99.90;;;;;;5049934;28;20207;-49
2022/11/24 01:18:46;;;;;;;0.67;0.67;;;5.80;99.90;;;;;;5051483;28;20206;-49
2022/11/24 01:21:14;;;;;;;1.07;0.60;;;5.80;99.90;;;;;;5047130;28;20211;-50
2022/11/24 01:23:42;;;;;;;4.10;1.10;;;5.90;99.90;;;;;;5049152;28;20221;-50
2022/11/24 01:26:11;;;;;;;2.40;0.80;;;5.80;99.90;;;;;;5049345;28;20211;-49
2022/11/24 01:28:38;;;;;;;0.97;0.50;;;5.80;99.90;;;;;;5049660;28;20257;-49
2022/11/24 01:31:07;;;;;;;1.00;0.77;;;5.80;99.90;;;;;;5047148;28;20202;-50
2022/11/24 01:33:36;;;;;;;0.63;0.60;;;5.80;99.90;;;;;;5046188;28;20218;-49
2022/11/24 01:36:04;;;;;;;0.50;0.50;;;5.80;99.90;;;;;;5050744;28;20196;-49
2022/11/24 01:38:32;;;;;;;0.87;0.87;;;5.90;99.90;;;;;;5046678;28;20619;-50
2022/11/24 01:41:05;;;;;;;0.90;0.90;;;5.80;99.90;;;;;;5050840;28;20216;-49
2022/11/24 01:43:32;;;;;;;2.70;0.80;;;5.80;99.90;;;;;;5048615;28;20234;-50
2022/11/24 01:46:04;;;;;;;0.87;0.80;;;5.80;99.90;;;;;;5045113;28;20219;-50
2022/11/24 01:48:36;;;;;;;1.30;0.90;;;5.80;99.90;;;;;;5051882;28;20238;-50
2022/11/24 01:51:09;;;;;;;1.70;0.90;;;5.80;99.90;;;;;;5047782;28;20222;-49
2022/11/24 01:53:38;;;;;;;3.00;1.13;;;5.80;99.90;;;;;;5048024;28;20220;-49
2022/11/24 01:56:06;;;;;;;1.20;0.77;;;5.80;99.90;;;;;;5039335;28;20219;-49
2022/11/24 01:58:35;;;;;;;2.40;0.87;;;5.80;99.90;;;;;;5049890;28;20242;-50
2022/11/24 02:01:02;;;;;;;1.77;0.70;;;5.70;99.90;;;;;;5048859;28;20618;-49
2022/11/24 02:03:35;;;;;;;0.50;0.50;;;5.70;99.90;;;;;;5046921;28;20223;-49
2022/11/24 02:06:08;;;;;;;1.13;0.97;;;5.70;99.90;;;;;;5048381;28;20606;-50
2022/11/24 02:08:42;;;;;;;0.87;0.87;;;5.70;99.90;;;;;;5049608;28;20219;-49
2022/11/24 02:11:09;;;;;;;0.70;0.63;;;5.70;99.90;;;;;;5048385;28;20204;-50
2022/11/24 02:13:39;;;;;;;0.80;0.80;;;5.80;99.90;;;;;;5044910;28;20236;-49
2022/11/24 02:16:09;;;;;;;0.70;0.70;;;5.70;99.90;;;;;;5042449;28;20202;-51
2022/11/24 02:18:38;;;;;;;2.07;0.67;;;5.70;99.90;;;;;;5042815;28;20209;-50
2022/11/24 02:21:07;;;;;;;0.50;0.50;;;5.70;99.90;;;;;;5039711;28;20210;-49
2022/11/24 02:23:43;;;;;;;2.33;0.93;;;5.80;99.90;;;;;;5047503;28;20228;-50
2022/11/24 02:26:20;;;;;;;0.60;0.60;;;5.80;99.90;;;;;;5042291;28;20215;-49
2022/11/24 02:28:50;;;;;;;0.93;0.63;;;5.80;99.90;;;;;;5046967;28;20196;-50
2022/11/24 02:31:17;;;;;;;1.23;0.50;;;5.90;99.90;;;;;;5049841;28;20220;-49
2022/11/24 02:33:44;;;;;;;0.40;0.40;;;6.00;99.90;;;;;;5044358;28;20230;-50
2022/11/24 02:36:11;;;;;;;2.33;0.77;;;6.10;99.90;;;;;;5045019;28;20205;-49
2022/11/24 02:38:38;;;;;;;0.50;0.50;;;6.10;99.90;;;;;;5044332;28;20702;-49
2022/11/24 02:41:08;;;;;;;1.03;0.50;;;6.10;99.90;;;;;;5051077;28;20216;-50
2022/11/24 02:43:39;;;;;;;0.33;0.33;;;6.00;99.90;;;;;;5048849;28;20231;-49
2022/11/24 02:46:09;;;;;;;0.93;0.60;;;6.00;99.90;;;;;;5038650;28;20223;-50
2022/11/24 02:48:36;;;;;;;0.77;0.43;;;6.00;99.90;;;;;;5031482;28;20258;-49
2022/11/24 02:51:04;;;;;;;1.17;0.50;;;6.00;99.90;;;;;;5045595;28;20680;-50
2022/11/24 02:53:31;;;;;;;1.13;0.30;;;5.90;99.90;;;;;;5049892;28;20228;-49
2022/11/24 02:55:58;;;;;;;0.50;0.50;;;5.90;99.90;;;;;;5047299;28;20204;-49
2022/11/24 02:58:25;;;;;;;1.03;0.70;;;5.90;99.90;;;;;;5055166;28;20204;-49
2022/11/24 03:00:56;;;;;;;1.03;1.03;;;5.90;99.90;;;;;;5054949;28;20204;-49
2022/11/24 03:03:25;;;;;;;1.87;0.60;;;5.90;99.90;;;;;;5051515;28;20705;-50
2022/11/24 03:05:52;;;;;;;0.63;0.63;;;5.90;99.90;;;;;;5035858;28;20223;-50
2022/11/24 03:08:20;;;;;;;1.43;0.90;;;5.90;99.90;;;;;;5041421;28;20216;-50
2022/11/24 03:10:48;;;;;;;0.73;0.73;;;5.80;99.90;;;;;;5053944;28;20243;-50
2022/11/24 03:13:15;;;;;;;1.33;0.67;;;5.80;99.90;;;;;;5048089;28;20286;-50
2022/11/24 03:15:42;;;;;;;0.80;0.80;;;5.70;99.90;;;;;;5050306;28;20203;-49
2022/11/24 03:18:09;;;;;;;2.30;1.07;;;5.70;99.90;;;;;;5041816;28;20200;-50
2022/11/24 03:20:37;;;;;;;1.03;1.03;;;5.70;99.90;;;;;;5043663;28;20216;-50
2022/11/24 03:23:04;;;;;;;0.63;0.63;;;5.70;99.90;;;;;;5042994;28;20223;-50
2022/11/24 03:25:31;;;;;;;1.03;0.93;;;5.60;99.90;;;;;;5050247;28;20228;-49
2022/11/24 03:27:58;;;;;;;1.70;0.90;;;5.60;99.90;;;;;;5036439;28;20197;-49
2022/11/24 03:30:26;;;;;;;1.37;1.03;;;5.50;99.90;;;;;;5053245;28;20259;-49
2022/11/24 03:32:53;;;;;;;0.80;0.80;;;5.50;99.90;;;;;;5048845;28;20289;-49
2022/11/24 03:35:20;;;;;;;1.23;0.90;;;5.50;99.90;;;;;;5049557;28;20294;-49
2022/11/24 03:37:48;;;;;;;0.87;0.70;;;5.50;99.90;;;;;;5051750;28;20206;-49
2022/11/24 03:40:16;;;;;;;0.70;0.70;;;5.50;99.90;;;;;;5045311;28;20675;-50
2022/11/24 03:42:43;;;;;;;0.93;0.80;;;5.50;99.90;;;;;;5046066;28;20291;-49
2022/11/24 03:45:10;;;;;;;1.07;0.80;;;5.50;99.90;;;;;;5052676;28;20282;-50
2022/11/24 03:47:37;;;;;;;1.43;0.60;;;5.50;99.90;;;;;;5044287;28;20197;-50
2022/11/24 03:50:05;;;;;;;0.80;0.80;;;5.60;99.90;;;;;;5037139;28;20200;-51
2022/11/24 03:52:32;;;;;;;1.57;0.83;;;5.60;99.90;;;;;;5053107;28;20277;-49
2022/11/24 03:55:01;;;;;;;1.23;0.57;;;5.60;99.90;;;;;;5052611;28;20669;-50
2022/11/24 03:57:28;;;;;;;0.90;0.90;;;5.60;99.90;;;;;;5050897;28;20203;-49
2022/11/24 03:59:55;;;;;;;2.60;0.50;;;5.60;99.90;;;;;;5053284;28;20232;-49
2022/11/24 04:02:21;;;;;;;0.47;0.47;;;5.60;99.90;;;;;;5046767;28;20268;-50
2022/11/24 04:04:51;;;;;;;0.63;0.50;;;5.70;99.90;;;;;;5050286;28;20693;-48
2022/11/24 04:07:18;;;;;;;1.60;0.40;;;5.70;99.90;;;;;;5053148;28;20699;-49
2022/11/24 04:09:45;;;;;;;3.00;0.67;;;5.70;99.90;;;;;;5053110;28;20647;-49
2022/11/24 04:14:58;;;;;;;0.80;0.53;;;5.80;99.90;;;;;;5033229;28;20211;-49
2022/11/24 04:17:25;;;;;;;2.00;0.60;;;5.70;99.90;;;;;;5051241;28;20706;-49
2022/11/24 04:19:52;;;;;;;0.50;0.50;;;5.70;99.90;;;;;;5052080;28;20205;-50
2022/11/24 04:22:19;;;;;;;1.73;0.40;;;5.70;99.90;;;;;;5042419;28;20987;-51
2022/11/24 04:24:46;;;;;;;0.80;0.70;;;5.70;99.90;;;;;;5050816;28;20360;-49
2022/11/24 04:27:14;;;;;;;2.30;0.87;;;5.60;99.90;;;;;;5046875;28;20196;-49
2022/11/24 04:29:41;;;;;;;0.97;0.90;;;5.70;99.90;;;;;;5049384;28;20762;-50
2022/11/24 04:32:08;;;;;;;0.70;0.70;;;5.60;99.90;;;;;;5051315;28;20614;-51
2022/11/24 04:34:36;;;;;;;1.10;1.00;;;5.60;99.90;;;;;;5051049;28;20625;-50
2022/11/24 04:37:03;;;;;;;1.27;0.77;;;5.50;99.90;;;;;;5046751;28;20625;-50
2022/11/24 04:39:31;;;;;;;1.07;0.60;;;5.50;99.90;;;;;;5051490;28;20208;-49
2022/11/24 04:41:58;;;;;;;3.10;1.17;;;5.60;99.90;;;;;;5050009;28;20208;-49
2022/11/24 04:44:26;;;;;;;3.23;0.70;;;5.60;99.90;;;;;;5045452;28;20201;-49
2022/11/24 04:46:53;;;;;;;1.50;0.80;;;5.60;99.90;;;;;;5045809;28;20278;-50
2022/11/24 04:49:20;;;;;;;2.60;1.00;;;5.70;99.90;;;;;;5053053;28;20208;-49
2022/11/24 04:51:47;;;;;;;1.73;0.70;;;5.70;99.90;;;;;;5053060;28;20247;-49
2022/11/24 04:54:15;;;;;;;10.30;1.20;;;5.70;99.90;;;;;;5067292;28;20229;-50
2022/11/24 04:56:42;;;;;;;1.20;1.03;;;5.70;99.90;;;;;;5068361;28;20198;-50
2022/11/24 04:59:13;;;;;;;1.37;1.33;;;5.70;99.90;;;;;;5061110;28;20226;-49
2022/11/24 05:01:42;;;;;;;2.83;1.93;;;5.70;99.90;;;;;;5066373;28;20239;-49
2022/11/24 05:04:10;;;;;;;2.87;1.10;;;5.70;99.90;;;;;;5069924;28;20208;-49
2022/11/24 05:06:37;;;;;;;1.60;1.50;;;5.70;99.90;;;;;;5046475;28;20304;-49
2022/11/24 05:09:04;;;;;;;1.03;0.60;;;5.70;99.90;;;;;;5051396;28;20220;-49
2022/11/24 05:11:32;;;;;;;1.20;0.93;;;5.80;99.90;;;;;;5050050;28;20211;-49
2022/11/24 05:13:59;;;;;;;1.90;0.60;;;5.80;99.90;;;;;;5044340;28;20242;-49
2022/11/24 05:16:26;;;;;;;1.63;0.93;;;5.80;99.90;;;;;;5044594;28;20645;-50
2022/11/24 05:18:54;;;;;;;1.57;0.80;;;5.80;99.90;;;;;;5049199;28;20207;-50
2022/11/24 05:21:22;;;;;;;0.30;0.30;;;5.90;99.90;;;;;;5046723;28;20250;-50
2022/11/24 05:23:49;;;;;;;0.70;0.30;;;5.90;99.90;;;;;;5048363;28;20309;-50
2022/11/24 05:26:16;;;;;;;0.80;0.67;;;6.00;99.90;;;;;;5044928;28;20220;-50
2022/11/24 05:28:43;;;;;;;0.70;0.57;;;6.00;99.90;;;;;;5049776;28;20207;-50
2022/11/24 05:31:10;;;;;;;0.70;0.70;;;6.00;99.90;;;;;;5042166;28;20345;-50
2022/11/24 05:33:37;;;;;;;1.50;0.70;;;6.00;99.90;;;;;;5047288;28;20310;-50
2022/11/24 05:36:07;;;;;;;1.40;0.60;;;6.00;99.90;;;;;;5042674;28;20725;-50
2022/11/24 05:38:35;;;;;;;2.63;0.63;;;6.00;99.90;;;;;;5038549;28;20744;-50
2022/11/24 05:41:03;;;;;;;1.60;0.83;;;6.10;99.90;;;;;;5045576;28;20205;-49
2022/11/24 05:43:30;;;;;;;0.60;0.60;;;6.10;99.90;;;;;;5049706;28;20284;-49
2022/11/24 05:45:59;;;;;;;1.13;0.90;;;6.10;99.90;;;;;;5044906;28;20648;-49
2022/11/24 05:48:27;;;;;;;1.47;0.60;;;6.00;99.90;;;;;;5051370;28;20615;-49
2022/11/24 05:50:55;;;;;;;1.13;0.47;;;6.00;99.90;;;;;;5051289;28;20251;-49
2022/11/24 05:53:25;;;;;;;0.87;0.87;;;6.10;99.90;;;;;;5040538;28;20223;-49
2022/11/24 05:55:53;;;;;;;0.97;0.70;;;6.10;99.90;;;;;;5031430;28;20204;-50
2022/11/24 05:58:20;;;;;;;1.23;0.80;;;6.00;99.90;;;;;;5038513;28;20696;-49
2022/11/24 06:00:47;;;;;;;2.27;0.93;;;5.90;99.90;;;;;;5050398;28;20281;-50
2022/11/24 06:03:16;;;;;;;3.90;1.30;;;5.90;99.90;;;;;;5042288;28;20780;-50
2022/11/24 06:05:46;;;;;;;1.07;0.90;;;5.80;99.90;;;;;;5039379;28;20591;-50
2022/11/24 06:08:14;;;;;;;1.30;1.20;;;5.80;99.90;;;;;;5051065;28;20380;-49
2022/11/24 06:10:42;;;;;;;1.70;1.60;;;5.80;99.90;;;;;;5050441;28;20636;-49
2022/11/24 06:13:09;;;;;;;3.33;1.20;;;5.80;99.90;;;;;;5050303;28;20224;-49
2022/11/24 06:15:37;;;;;;;1.07;1.07;;;5.70;99.90;;;;;;5050716;28;20673;-50
2022/11/24 06:18:04;;;;;;;0.93;0.93;;;5.70;99.90;;;;;;5048077;28;20287;-50
2022/11/24 06:20:31;;;;;;;1.13;1.13;;;5.60;99.90;;;;;;5035031;28;20197;-50
2022/11/24 06:22:59;;;;;;;1.57;1.10;;;5.60;99.90;;;;;;5034035;28;20236;-49
2022/11/24 06:25:27;;;;;;;1.23;1.00;;;5.60;99.90;;;;;;5050497;28;20736;-51
2022/11/24 06:27:55;;;;;;;2.73;1.13;;;5.50;99.90;;;;;;5047615;28;20273;-49
2022/11/24 06:30:22;;;;;;;3.37;1.77;;;5.50;99.90;;;;;;5049466;28;20343;-50
2022/11/24 06:32:53;;;;;;;1.17;1.17;;;5.60;99.90;;;;;;5050374;28;20232;-50
2022/11/24 06:35:20;;;;;;;1.97;1.40;;;5.60;99.90;;;;;;5047247;28;20681;-51
2022/11/24 06:37:47;;;;;;;2.07;1.30;;;5.60;99.90;;;;;;5045852;28;20756;-50
2022/11/24 06:40:14;;;;;;;0.80;0.80;;;5.60;99.90;;;;;;5049347;28;20628;-49
2022/11/24 06:42:41;;;;;;;1.10;1.10;;;5.50;99.90;;;;;;5049264;28;20731;-50
2022/11/24 06:45:10;;;;;;;2.50;1.13;;;5.60;99.90;;;;;;5045471;28;20671;-50
2022/11/24 06:47:37;;;;;;;3.77;1.93;;;5.50;99.90;;;;;;5054599;28;20322;-51
2022/11/24 06:50:05;;;;;;;1.30;1.23;;;5.50;99.90;;;;;;5054597;28;20194;-49
2022/11/24 06:52:32;;;;;;;2.03;1.70;;;5.50;99.90;;;;;;5052661;28;20856;-49
2022/11/24 06:54:59;;;;;;;6.33;2.70;;;5.60;99.90;;;;;;5034084;28;20208;-49
2022/11/24 06:57:28;;;;;;;1.80;1.70;;;5.60;99.90;;;;;;5035611;28;20198;-49
2022/11/24 06:59:56;;;;;;;4.10;1.77;;;5.60;99.90;;;;;;5049974;28;20208;-50
2022/11/24 07:02:24;;;;;;;2.43;2.33;;;5.80;99.90;;;;;;5045932;28;20256;-50
2022/11/24 07:04:51;;;;;;;3.17;2.63;;;5.70;99.90;;;;;;5045855;28;20215;-49
2022/11/24 07:07:18;;;;;;;2.70;2.20;;;5.70;99.90;;;;;;5053297;28;20230;-50
2022/11/24 07:09:45;;;;;;;5.17;2.43;;;5.70;99.90;;;;;;5049782;28;20253;-49
2022/11/24 07:12:12;;;;;;;2.57;2.37;;;5.70;99.90;;;;;;5049085;28;20272;-49
2022/11/24 07:14:39;;;;;;;4.17;2.50;;;5.70;99.90;;;;;;5042284;28;20204;-49
2022/11/24 07:17:07;;;;;;;4.57;2.37;;;5.80;99.90;;;;;;5045793;28;20213;-50
2022/11/24 07:19:37;;;;;;;3.70;1.93;;;5.70;99.90;;;;;;5052165;28;20288;-50
2022/11/24 07:22:04;;;;;;;6.00;2.37;;;5.80;99.90;;;;;;5045569;28;20220;-51
2022/11/24 07:24:32;;;;;;;8.27;2.83;;;5.80;99.90;;;;;;5047122;28;20257;-49
2022/11/24 07:26:59;;;;;;;3.60;1.47;;;5.80;99.90;;;;;;5050778;28;20211;-49
2022/11/24 07:29:26;;;;;;;0.97;0.97;;;5.90;99.90;;;;;;5053762;28;20201;-50
2022/11/24 07:31:53;;;;;;;2.83;1.77;;;6.00;99.90;;;;;;5051316;28;20197;-49
2022/11/24 07:34:20;;;;;;;1.63;1.53;;;6.00;99.90;;;;;;5038823;28;20216;-49
2022/11/24 07:36:49;;;;;;;2.10;1.50;;;6.10;99.90;;;;;;5051238;28;20254;-50
2022/11/24 07:39:15;;;;;;;2.37;1.57;;;6.10;99.90;;;;;;5046818;28;20206;-50
2022/11/24 07:41:42;;;;;;;3.17;1.00;;;6.10;99.90;;;;;;5047893;28;20209;-49
2022/11/24 07:44:10;;;;;;;0.93;0.80;;;6.10;99.90;;;;;;5043319;28;20210;-50
2022/11/24 07:46:36;;;;;;;1.60;1.33;;;6.20;99.90;;;;;;5045803;28;20722;-49
2022/11/24 07:49:04;;;;;;;1.97;1.00;;;6.20;99.90;;;;;;5056142;28;20687;-50
2022/11/24 07:51:31;;;;;;;1.73;1.30;;;6.20;99.90;;;;;;5073741;28;20275;-49
2022/11/24 07:53:59;;;;;;;1.87;0.77;;;6.30;99.90;;;;;;5060967;28;20710;-50
2022/11/24 07:56:27;;;;;;;1.57;1.33;;;6.30;99.90;;;;;;5053603;28;20200;-50
2022/11/24 07:58:54;;;;;;;2.00;1.17;;;6.30;99.90;;;;;;5050800;28;20228;-49
2022/11/24 08:01:21;;;;;;;1.63;0.80;;;6.30;99.90;;;;;;5045419;28;20257;-49
2022/11/24 08:03:48;;;;;;;2.30;0.90;;;6.30;99.90;;;;;;5051472;28;20251;-49
2022/11/24 08:06:15;;;;;;;0.90;0.73;;;6.30;99.90;;;;;;5058034;28;20241;-49
2022/11/24 08:08:43;;;;;;;2.93;1.00;;;6.40;99.90;;;;;;5072489;28;20638;-50
2022/11/24 08:11:14;;;;;;;1.87;0.80;;;6.40;99.90;;;;;;5073261;28;20677;-49
2022/11/24 08:13:42;;;;;;;0.67;0.67;;;6.50;99.90;;;;;;5072633;28;20236;-49
2022/11/24 08:16:11;;;;;;;5.00;0.70;;;6.50;99.90;;;;;;5068958;28;20281;-49
2022/11/24 08:18:38;;;;;;;0.90;0.83;;;6.50;99.90;;;;;;5038518;28;20673;-50
2022/11/24 08:21:06;;;;;;;0.70;0.63;;;6.50;99.90;;;;;;5033097;28;20616;-49
2022/11/24 08:23:34;;;;;;;2.97;0.97;;;6.50;99.90;;;;;;5043207;28;20784;-51
2022/11/24 08:26:04;;;;;;;1.63;1.40;;;6.50;99.90;;;;;;5052692;28;20212;-50
2022/11/24 08:28:33;;;;;;;1.67;1.40;;;6.50;99.90;;;;;;5049142;28;20211;-50
2022/11/24 08:31:04;;;;;;;1.30;1.20;;;6.60;99.90;;;;;;5052565;28;20201;-50
2022/11/24 08:33:31;;;;;;;1.93;1.20;;;6.60;99.90;;;;;;5051813;28;20262;-51
2022/11/24 08:36:04;;;;;;;1.80;0.87;;;6.60;99.90;;;;;;5039161;28;20212;-51
2022/11/24 08:38:31;;;;;;;1.60;0.90;;;6.60;99.90;;;;;;5035501;28;20203;-51
2022/11/24 08:41:01;;;;;;;2.17;1.10;;;6.60;99.90;;;;;;5063242;28;20216;-50
2022/11/24 08:43:28;;;;;;;3.40;1.20;;;6.60;99.90;;;;;;5060682;28;20265;-49
2022/11/24 08:46:00;;;;;;;0.90;0.90;;;6.60;99.90;;;;;;5050137;28;20208;-52
2022/11/24 08:48:27;;;;;;;3.93;1.07;;;6.70;99.90;;;;;;5052629;28;20209;-51
2022/11/24 08:50:54;;;;;;;1.00;0.90;;;6.70;99.90;;;;;;5052019;28;20240;-50
2022/11/24 08:53:21;;;;;;;1.13;0.80;;;6.70;99.90;;;;;;5051689;28;20234;-52
2022/11/24 08:55:48;;;;;;;2.57;0.97;;;6.70;99.90;;;;;;5052329;28;20211;-50
2022/11/24 08:58:15;;;;;;;1.67;1.10;;;6.80;99.90;;;;;;5065344;28;20660;-49
2022/11/24 09:00:42;;;;;;;0.80;0.60;;;6.90;99.90;;;;;;5072107;28;20231;-51
2022/11/24 09:03:12;;;;;;;1.23;0.90;;;6.90;99.90;;;;;;5071250;28;20723;-52
2022/11/24 09:05:39;;;;;;;0.53;0.53;;;7.00;99.90;;;;;;5072102;28;20274;-49
2022/11/24 09:08:06;;;;;;;2.47;1.40;;;7.00;99.90;;;;;;5045181;28;20501;-49
2022/11/24 09:10:33;;;;;;;7.63;1.63;;;7.10;99.90;;;;;;5050082;28;20523;-49
2022/11/24 09:13:00;;;;;;;1.90;0.63;;;7.10;99.90;;;;;;5049916;28;20276;-50
2022/11/24 09:15:28;;;;;;;2.27;0.80;;;7.20;99.90;;;;;;5051550;28;20201;-49
2022/11/24 09:17:55;;;;;;;4.17;1.40;;;7.10;99.90;;;;;;5051764;28;20203;-51
2022/11/24 09:20:23;;;;;;;2.73;0.70;;;7.10;99.90;;;;;;5050924;28;20225;-50
2022/11/24 09:22:50;;;;;;;2.20;0.70;;;7.10;99.90;;;;;;5043121;28;20223;-49
2022/11/24 09:25:17;;;;;;;1.03;0.50;;;7.10;99.90;;;;;;5050717;28;20235;-51
2022/11/24 09:27:44;;;;;;;0.40;0.30;;;7.10;99.90;;;;;;5051645;28;20234;-50
2022/11/24 09:30:13;;;;;;;0.67;0.37;;;7.00;99.90;;;;;;5051508;28;20633;-50
2022/11/24 09:32:40;;;;;;;1.80;0.70;;;6.90;99.90;;;;;;5051490;28;20239;-50
2022/11/24 09:35:07;;;;;;;1.10;0.97;;;7.00;99.90;;;;;;5050828;28;20201;-50
2022/11/24 09:37:35;;;;;;;2.00;0.40;;;7.00;99.90;;;;;;5049914;28;20199;-51
2022/11/24 09:40:03;;;;;;;2.07;0.60;;;6.90;99.90;;;;;;5041677;28;20199;-50
2022/11/24 09:42:43;;;;;;;1.90;0.50;;;6.90;99.90;;;;;;5050519;28;20235;-51
2022/11/24 09:45:31;;;;;;;1.03;0.70;;;6.90;99.90;;;;;;5043751;28;20846;-50
2022/11/24 09:48:03;;;;;;;0.73;0.60;;;6.80;99.90;;;;;;5051103;28;20215;-49
2022/11/24 09:50:33;;;;;;;3.13;2.27;;;6.90;99.90;;;;;;5052151;28;20203;-50
2022/11/24 09:53:07;;;;;;;3.60;2.50;;;7.00;99.90;;;;;;5050823;28;20302;-50
2022/11/24 09:55:42;;;;;;;2.00;1.70;;;7.00;99.90;;;;;;5050230;28;20308;-50
2022/11/24 09:58:18;;;;;;;2.17;1.53;;;7.00;99.90;;;;;;5035333;28;20207;-49
2022/11/24 10:00:48;;;;;;;2.17;1.63;;;7.00;99.90;;;;;;5051008;28;20246;-49
2022/11/24 10:03:26;;;;;;;3.33;2.70;;;7.00;99.90;;;;;;5049673;28;20235;-49
2022/11/24 10:05:53;;;;;;;4.27;2.30;;;6.90;99.90;;;;;;5049599;28;20646;-50
2022/11/24 10:09:03;;;;;;;1.80;1.70;;;7.00;99.90;;;;;;5046093;28;20223;-49
2022/11/24 10:11:38;;;;;;;2.10;1.70;;;7.10;99.90;;;;;;5048068;28;20269;-49
2022/11/24 10:14:29;;;;;;;2.73;1.00;;;7.10;99.90;;;;;;5042449;28;20571;-51
2022/11/24 10:17:07;;;;;;;3.13;1.90;;;7.10;99.90;;;;;;5049913;28;20206;-49
2022/11/24 10:19:45;;;;;;;2.40;2.25;;;7.10;99.90;;;;;;5043035;28;20448;-49
2022/11/24 10:22:27;;;;;;;2.93;1.90;;;7.10;99.90;;;;;;5038709;28;20223;-50
2022/11/24 10:25:19;;;;;;;3.60;2.63;;;7.10;99.90;;;;;;5035747;28;20688;-49
2022/11/24 10:27:50;;;;;;;2.47;1.47;;;7.10;99.90;;;;;;5048737;28;20223;-49
2022/11/24 10:30:20;;;;;;;4.63;1.53;;;7.30;99.90;;;;;;5051011;28;20299;-49
2022/11/24 10:32:48;;;;;;;2.90;1.10;;;7.40;99.90;;;;;;5050972;28;20769;-50
2022/11/24 10:35:19;;;;;;;1.40;1.17;;;7.60;99.90;;;;;;5049591;28;20209;-50
2022/11/24 10:37:54;;;;;;;1.53;1.43;;;7.70;99.90;;;;;;5049150;28;20520;-49
2022/11/24 10:40:30;;;;;;;2.00;1.30;;;7.80;99.90;;;;;;5049334;28;20645;-51
2022/11/24 10:42:57;;;;;;;4.47;1.97;;;8.10;99.90;;;;;;5031184;28;20231;-50
2022/11/24 10:45:27;;;;;;;12.83;7.70;;;8.30;99.90;;;;;;5030713;28;20593;-50
2022/11/24 10:47:54;;;;;;;10.30;7.50;;;8.50;99.90;;;;;;5030833;28;20220;-49
2022/11/24 10:50:23;;;;;;;0.83;0.83;;;8.60;99.90;;;;;;5030841;28;20678;-50
2022/11/24 10:52:56;;;;;;;1.10;1.00;;;8.70;99.90;;;;;;5040101;28;20226;-50
2022/11/24 10:55:24;;;;;;;1.13;0.50;;;8.70;99.90;;;;;;5050211;28;20207;-49
2022/11/24 10:57:51;;;;;;;4.43;0.70;;;8.70;99.90;;;;;;5049640;28;20616;-49
2022/11/24 11:00:34;;;;;;;1.33;0.77;;;8.80;99.90;;;;;;5043147;28;20195;-49
2022/11/24 11:03:16;;;;;;;3.37;0.60;;;8.80;99.90;;;;;;5037777;28;20220;-49
2022/11/24 11:05:47;;;;;;;2.17;0.70;;;9.00;99.90;;;;;;5040692;28;20264;-49
2022/11/24 11:08:29;;;;;;;0.80;0.80;;;8.90;99.90;;;;;;5049259;28;20273;-50
2022/11/24 11:11:20;;;;;;;0.50;0.30;;;8.90;99.90;;;;;;5050262;28;20207;-50
2022/11/24 11:13:54;;;;;;;2.83;0.40;;;8.90;99.90;;;;;;5049810;28;20718;-49
2022/11/24 11:16:34;;;;;;;3.77;0.63;;;9.00;99.90;;;;;;5053398;28;20226;-50
2022/11/24 11:19:03;;;;;;;3.07;0.57;;;9.10;99.90;;;;;;5047521;28;20204;-50
2022/11/24 11:21:34;;;;;;;0.67;0.67;;;9.20;99.90;;;;;;5038665;28;20571;-51
2022/11/24 11:24:03;;;;;;;1.87;1.03;;;9.20;99.90;;;;;;5037386;28;20227;-50
2022/11/24 11:26:38;;;;;;;0.77;0.67;;;9.40;99.90;;;;;;5048586;28;20273;-49
2022/11/24 11:29:18;;;;;;;0.80;0.40;;;9.60;99.90;;;;;;5053940;28;20233;-49
2022/11/24 11:31:58;;;;;;;3.17;0.60;;;9.80;99.90;;;;;;5043922;28;20197;-50
2022/11/24 11:34:29;;;;;;;2.77;0.67;;;10.00;99.90;;;;;;5052941;28;20285;-50
2022/11/24 11:36:58;;;;;;;1.50;0.70;;;10.10;99.90;;;;;;5048779;28;20640;-50
2022/11/24 11:39:31;;;;;;;1.43;0.80;;;10.30;99.90;;;;;;5048386;28;20204;-51
2022/11/24 11:42:12;;;;;;;0.60;0.60;;;10.10;99.90;;;;;;5051768;28;20206;-48
2022/11/24 11:44:41;;;;;;;1.33;0.87;;;9.90;99.90;;;;;;5036250;28;20254;-49
2022/11/24 11:47:17;;;;;;;3.20;0.60;;;9.80;99.90;;;;;;5047064;28;20945;-48
2022/11/24 11:49:45;;;;;;;1.43;0.80;;;9.60;99.90;;;;;;5036511;28;20202;-47
2022/11/24 11:52:55;;;;;;;1.97;0.77;;;9.40;99.90;;;;;;5053200;28;20241;-48
2022/11/24 11:55:36;;;;;;;1.17;0.70;;;9.20;99.90;;;;;;4991073;28;20224;-49
2022/11/24 11:58:28;;;;;;;2.97;0.80;;;9.10;99.90;;;;;;5041858;28;20192;-48
2022/11/24 12:01:03;;;;;;;1.90;0.70;;;9.00;99.90;;;;;;5044993;28;20578;-50
2022/11/24 12:03:49;;;;;;;0.97;0.97;;;8.90;99.90;;;;;;5052706;28;20238;-48
2022/11/24 12:06:28;;;;;;;3.30;0.73;;;9.00;99.90;;;;;;5053083;28;20689;-48
2022/11/24 12:09:06;;;;;;;2.77;0.87;;;9.20;99.90;;;;;;5048788;28;20227;-49
2022/11/24 12:11:39;;;;;;;2.50;0.83;;;9.20;99.90;;;;;;5040067;28;20684;-48
2022/11/24 12:14:22;;;;;;;4.07;1.57;;;9.20;99.90;;;;;;5052032;28;20242;-49
2022/11/24 12:17:00;;;;;;;1.17;0.93;;;9.20;99.90;;;;;;5053045;28;20206;-48
2022/11/24 12:19:54;;;;;;;1.43;1.00;;;9.10;99.90;;;;;;5053269;28;20613;-48
2022/11/24 12:22:31;;;;;;;2.03;0.93;;;9.10;99.90;;;;;;5052925;28;20323;-48
2022/11/24 12:25:13;;;;;;;2.33;0.90;;;9.00;99.90;;;;;;5051167;28;20261;-48
2022/11/24 12:27:48;;;;;;;1.37;0.77;;;9.00;99.90;;;;;;5035316;28;20280;-49
2022/11/24 12:30:18;;;;;;;0.67;0.60;;;8.90;99.90;;;;;;5033052;28;20207;-50
2022/11/24 12:33:34;;;;;;;3.37;0.77;;;8.60;99.90;;;;;;5051695;28;20289;-48
2022/11/24 12:36:10;;;;;;;1.70;1.10;;;8.40;99.90;;;;;;5032531;28;20249;-49
2022/11/24 12:38:54;;;;;;;4.43;0.67;;;8.10;99.90;;;;;;5052941;28;20211;-48
2022/11/24 12:41:35;;;;;;;1.33;0.80;;;8.00;99.90;;;;;;5050140;28;20210;-49
2022/11/24 12:44:04;;;;;;;3.27;0.90;;;8.00;99.90;;;;;;5043453;28;20787;-49
2022/11/24 12:46:40;;;;;;;1.80;1.13;;;7.90;99.90;;;;;;5052687;28;20205;-49
2022/11/24 12:49:19;;;;;;;2.60;0.60;;;7.80;99.90;;;;;;5052345;28;20223;-48
2022/11/24 12:51:51;;;;;;;1.80;0.47;;;7.80;99.90;;;;;;5052301;28;20209;-48
2022/11/24 12:54:21;;;;;;;2.03;0.87;;;7.70;99.90;;;;;;5051538;28;20211;-48
2022/11/24 12:56:53;;;;;;;1.60;1.00;;;7.70;99.90;;;;;;5050011;28;20624;-49
2022/11/24 12:59:37;;;;;;;1.90;0.70;;;7.80;99.90;;;;;;5046552;28;20713;-50
2022/11/24 13:02:18;;;;;;;1.57;0.60;;;7.80;99.90;;;;;;5052147;28;20229;-48
2022/11/24 13:04:51;;;;;;;2.80;0.90;;;7.80;99.90;;;;;;5051109;28;20277;-48
2022/11/24 13:07:24;;;;;;;1.23;0.73;;;7.80;99.90;;;;;;5050502;28;20233;-48
2022/11/24 13:10:32;;;;;;;3.13;1.07;;;7.90;99.90;;;;;;5041734;28;20211;-48
2022/11/24 13:13:00;;;;;;;1.20;0.87;;;7.90;99.90;;;;;;5031546;28;20254;-48
2022/11/24 13:15:28;;;;;;;1.50;1.00;;;7.90;99.90;;;;;;5051432;28;20588;-48
2022/11/24 13:17:57;;;;;;;1.07;0.87;;;7.90;99.90;;;;;;5032737;28;20196;-48